Time;durP1;ratioP1;P1;durP2;ratioP2;P2;SDS_P1;SDS_P2;PMS_P1;PMS_P2;Temp;Humidity;BMP_temperature;BMP_pressure;BME280_temperature;BME280_humidity;BME280_pressure;Samples;Min_cycle;Max_cycle;Signal;HPM_P1;HPM_P2
2022/09/03 00:03:50;;;;;;;15.48;10.98;;;;;;;;;;10119643;28;20044;-57
2022/09/03 00:08:53;;;;;;;14.95;9.23;;;;;;;;;;10100249;28;20052;-57
2022/09/03 00:14:08;;;;;;;16.40;8.70;;;;;;;;;;10116536;28;20057;-57
2022/09/03 00:19:03;;;;;;;9.68;8.75;;;;;;;;;;10103098;28;20104;-56
2022/09/03 00:24:06;;;;;;;8.52;7.55;;;;;;;;;;10114027;28;20050;-56
2022/09/03 00:29:16;;;;;;;11.27;7.80;;;;;;;;;;10114337;28;20052;-56
2022/09/03 00:34:23;;;;;;;14.13;8.52;;;;;;;;;;10107819;28;20162;-57
2022/09/03 00:39:18;;;;;;;9.60;8.60;;;;;;;;;;10114592;28;20090;-56
2022/09/03 00:44:11;;;;;;;10.52;7.35;;;;;;;;;;10124988;28;20079;-56
2022/09/03 00:49:18;;;;;;;9.30;6.45;;;;;;;;;;10144770;28;20052;-56
2022/09/03 00:54:24;;;;;;;11.52;6.90;;;;;;;;;;10129127;28;20132;-57
2022/09/03 00:59:27;;;;;;;10.43;7.00;;;;;;;;;;10128892;28;20487;-56
2022/09/03 01:04:44;;;;;;;9.13;7.95;;;;;;;;;;10133751;28;20479;-56
2022/09/03 01:10:13;;;;;;;11.05;8.27;;;;;;;;;;10123071;28;20422;-56
2022/09/03 01:15:09;;;;;;;11.25;7.20;;;;;;;;;;10110762;28;20504;-56
2022/09/03 01:20:11;;;;;;;18.52;7.47;;;;;;;;;;10127900;28;20052;-56
2022/09/03 01:25:16;;;;;;;8.80;7.88;;;;;;;;;;10120086;28;20095;-57
2022/09/03 01:30:37;;;;;;;15.38;8.95;;;;;;;;;;10108950;28;20118;-56
2022/09/03 01:35:56;;;;;;;10.52;8.38;;;;;;;;;;10109338;28;20091;-57
2022/09/03 01:46:41;;;;;;;9.75;8.88;;;;;;;;;;10121585;28;20056;-57
2022/09/03 01:51:33;;;;;;;8.70;7.15;;;;;;;;;;10117117;28;20538;-57
2022/09/03 01:56:47;;;;;;;9.38;5.65;;;;;;;;;;10107899;28;20106;-57
2022/09/03 02:01:49;;;;;;;6.45;5.85;;;;;;;;;;10105012;28;20063;-58
2022/09/03 02:06:45;;;;;;;8.15;6.40;;;;;;;;;;10116413;28;20068;-57
2022/09/03 02:11:40;;;;;;;7.38;5.53;;;;;;;;;;10119552;28;20068;-58
2022/09/03 02:16:34;;;;;;;7.85;5.50;;;;;;;;;;10130730;28;20056;-57
2022/09/03 02:21:33;;;;;;;6.43;5.78;;;;;;;;;;10129183;28;20059;-57
2022/09/03 02:26:27;;;;;;;10.23;5.45;;;;;;;;;;10126002;28;20513;-57
2022/09/03 02:31:20;;;;;;;9.23;5.30;;;;;;;;;;10049320;28;2571292;-57
2022/09/03 02:36:19;;;;;;;7.28;6.60;;;;;;;;;;10128554;28;20051;-57
2022/09/03 02:41:19;;;;;;;11.27;8.63;;;;;;;;;;10120981;28;20526;-57
2022/09/03 02:46:23;;;;;;;11.85;9.73;;;;;;;;;;10130135;28;20041;-57
2022/09/03 02:51:19;;;;;;;16.45;10.43;;;;;;;;;;10141051;28;20069;-57
2022/09/03 02:56:13;;;;;;;15.75;12.43;;;;;;;;;;10122454;28;20525;-57
2022/09/03 03:01:08;;;;;;;12.38;11.18;;;;;;;;;;10141381;28;20055;-57
2022/09/03 03:06:06;;;;;;;15.23;13.13;;;;;;;;;;10118709;28;20400;-57
2022/09/03 03:11:00;;;;;;;14.98;11.77;;;;;;;;;;10111563;28;20045;-61
2022/09/03 03:15:59;;;;;;;11.85;10.80;;;;;;;;;;10123658;28;20053;-60
2022/09/03 03:20:54;;;;;;;11.07;9.82;;;;;;;;;;10115958;28;20053;-57
2022/09/03 03:25:49;;;;;;;11.35;10.23;;;;;;;;;;10120976;28;20099;-57
2022/09/03 03:30:46;;;;;;;11.95;10.50;;;;;;;;;;10123767;28;20590;-57
2022/09/03 03:35:41;;;;;;;10.32;9.43;;;;;;;;;;10133283;28;20078;-57
2022/09/03 03:40:38;;;;;;;10.73;9.73;;;;;;;;;;10128326;28;20057;-57
2022/09/03 03:45:32;;;;;;;10.68;9.68;;;;;;;;;;10137702;28;20120;-57
2022/09/03 03:50:26;;;;;;;10.93;9.82;;;;;;;;;;10134198;28;20056;-57
2022/09/03 03:55:21;;;;;;;12.35;10.75;;;;;;;;;;10127460;28;20102;-57
2022/09/03 04:00:19;;;;;;;11.03;9.63;;;;;;;;;;10124495;28;20040;-57
2022/09/03 04:05:16;;;;;;;10.27;9.27;;;;;;;;;;10124013;28;20052;-57
2022/09/03 04:10:15;;;;;;;10.32;9.43;;;;;;;;;;10112640;28;20052;-58
2022/09/03 04:15:10;;;;;;;10.27;9.15;;;;;;;;;;10115492;28;20080;-57
2022/09/03 04:20:05;;;;;;;12.98;11.80;;;;;;;;;;10118917;28;20037;-58
2022/09/03 04:24:58;;;;;;;12.77;10.55;;;;;;;;;;10136131;28;20054;-57
2022/09/03 04:29:52;;;;;;;12.98;9.80;;;;;;;;;;10143719;28;20198;-57
2022/09/03 04:34:46;;;;;;;11.48;10.38;;;;;;;;;;10118369;28;20098;-58
2022/09/03 04:39:43;;;;;;;11.73;10.50;;;;;;;;;;10117994;28;20053;-57
2022/09/03 04:44:39;;;;;;;11.50;10.30;;;;;;;;;;10107070;28;20052;-57
2022/09/03 04:49:34;;;;;;;10.80;9.80;;;;;;;;;;10116013;28;20049;-57
2022/09/03 04:54:28;;;;;;;10.82;9.68;;;;;;;;;;10113168;28;20049;-57
2022/09/03 04:59:21;;;;;;;10.68;8.90;;;;;;;;;;10128914;28;20047;-57
2022/09/03 05:04:15;;;;;;;10.63;9.32;;;;;;;;;;10118341;28;20056;-57
2022/09/03 05:09:10;;;;;;;11.88;9.90;;;;;;;;;;10122218;28;20459;-58
2022/09/03 05:14:04;;;;;;;9.80;9.00;;;;;;;;;;10130766;28;20060;-57
2022/09/03 05:18:58;;;;;;;12.30;8.55;;;;;;;;;;10106788;28;20057;-55
2022/09/03 05:23:53;;;;;;;10.20;8.35;;;;;;;;;;10114517;28;20069;-56
2022/09/03 05:28:47;;;;;;;11.43;8.20;;;;;;;;;;10131882;28;20113;-58
2022/09/03 05:33:49;;;;;;;10.48;8.93;;;;;;;;;;10111988;28;20063;-57
2022/09/03 05:38:44;;;;;;;9.73;8.07;;;;;;;;;;10101894;28;20102;-58
2022/09/03 05:43:38;;;;;;;9.80;8.77;;;;;;;;;;10104389;28;20040;-58
2022/09/03 05:48:32;;;;;;;9.77;8.68;;;;;;;;;;10104502;28;20522;-57
2022/09/03 05:53:25;;;;;;;11.57;8.52;;;;;;;;;;10091833;28;20049;-57
2022/09/03 05:58:18;;;;;;;8.75;7.95;;;;;;;;;;10109742;28;20053;-59
2022/09/03 06:03:13;;;;;;;8.98;7.95;;;;;;;;;;10130987;28;20068;-59
2022/09/03 06:08:07;;;;;;;11.40;9.32;;;;;;;;;;10110273;28;20496;-59
2022/09/03 06:13:04;;;;;;;10.68;9.52;;;;;;;;;;10122331;28;20049;-59
2022/09/03 06:17:59;;;;;;;15.05;9.98;;;;;;;;;;10113880;28;20056;-59
2022/09/03 06:22:52;;;;;;;15.82;14.25;;;;;;;;;;10135160;28;20044;-59
2022/09/03 06:27:46;;;;;;;15.57;14.18;;;;;;;;;;10123337;28;20060;-59
2022/09/03 06:32:44;;;;;;;15.77;14.20;;;;;;;;;;10133313;28;20132;-58
2022/09/03 06:37:41;;;;;;;20.05;17.95;;;;;;;;;;10125300;28;20132;-57
2022/09/03 06:42:35;;;;;;;22.20;17.40;;;;;;;;;;10126479;28;20055;-58
2022/09/03 06:47:30;;;;;;;17.95;16.23;;;;;;;;;;10120789;28;20041;-58
2022/09/03 06:52:25;;;;;;;16.80;15.20;;;;;;;;;;10125577;28;20053;-56
2022/09/03 06:57:18;;;;;;;16.15;14.18;;;;;;;;;;10111817;28;20103;-56
2022/09/03 07:02:12;;;;;;;17.83;12.82;;;;;;;;;;10130779;28;20053;-55
2022/09/03 07:07:12;;;;;;;26.35;11.98;;;;;;;;;;10146973;28;20059;-57
2022/09/03 07:12:09;;;;;;;11.75;10.20;;;;;;;;;;10125269;28;20087;-57
2022/09/03 07:17:03;;;;;;;12.20;8.35;;;;;;;;;;10119823;28;20072;-57
2022/09/03 07:21:58;;;;;;;9.30;6.88;;;;;;;;;;10124524;28;20049;-57
2022/09/03 07:26:52;;;;;;;9.73;7.15;;;;;;;;;;10111489;28;20041;-57
2022/09/03 07:31:47;;;;;;;10.77;7.60;;;;;;;;;;10110749;28;20140;-57
2022/09/03 07:36:45;;;;;;;7.65;6.55;;;;;;;;;;10119994;28;20045;-57
2022/09/03 07:41:44;;;;;;;11.70;7.53;;;;;;;;;;10120964;28;20049;-57
2022/09/03 07:46:39;;;;;;;11.15;6.72;;;;;;;;;;10141953;28;20057;-57
2022/09/03 07:51:37;;;;;;;8.98;6.07;;;;;;;;;;10136511;28;20087;-57
2022/09/03 07:56:31;;;;;;;8.55;6.07;;;;;;;;;;10146884;28;20049;-57
2022/09/03 08:01:25;;;;;;;10.30;7.10;;;;;;;;;;10124600;28;20051;-57
2022/09/03 08:06:19;;;;;;;11.57;8.65;;;;;;;;;;10126810;28;20048;-57
2022/09/03 08:11:15;;;;;;;8.38;6.95;;;;;;;;;;10130605;28;20063;-56
2022/09/03 08:16:13;;;;;;;12.27;6.88;;;;;;;;;;10113579;28;20055;-55
2022/09/03 08:21:27;;;;;;;12.85;7.90;;;;;;;;;;10137155;28;20052;-57
2022/09/03 08:26:22;;;;;;;7.60;6.85;;;;;;;;;;10124142;28;20114;-57
2022/09/03 08:31:18;;;;;;;10.98;7.15;;;;;;;;;;10128677;28;20465;-57
2022/09/03 08:36:23;;;;;;;8.73;6.72;;;;;;;;;;10129414;28;20399;-57
2022/09/03 08:41:36;;;;;;;13.20;7.70;;;;;;;;;;10134906;28;20102;-56
2022/09/03 08:46:58;;;;;;;9.15;6.68;;;;;;;;;;10140711;28;20041;-57
2022/09/03 08:51:54;;;;;;;7.30;6.50;;;;;;;;;;10034942;28;20067;-57
2022/09/03 08:56:48;;;;;;;7.78;5.93;;;;;;;;;;10102777;28;20096;-57
2022/09/03 09:01:58;;;;;;;10.05;6.45;;;;;;;;;;10117703;28;20056;-57
2022/09/03 09:06:59;;;;;;;8.25;5.93;;;;;;;;;;10131262;28;20055;-57
2022/09/03 09:12:16;;;;;;;12.85;7.22;;;;;;;;;;10102137;28;20063;-57
2022/09/03 09:17:31;;;;;;;6.78;5.97;;;;;;;;;;10119963;28;20052;-57
2022/09/03 09:23:07;;;;;;;8.77;7.03;;;;;;;;;;10123572;28;20123;-57
2022/09/03 09:28:24;;;;;;;7.05;5.78;;;;;;;;;;10129999;28;20495;-57
2022/09/03 09:33:19;;;;;;;6.47;5.88;;;;;;;;;;10142825;28;20056;-57
2022/09/03 09:38:13;;;;;;;8.70;5.60;;;;;;;;;;10138663;28;20061;-57
2022/09/03 09:43:16;;;;;;;7.72;6.32;;;;;;;;;;10127880;28;20055;-57
2022/09/03 09:48:25;;;;;;;10.73;5.78;;;;;;;;;;10118706;28;20048;-57
2022/09/03 09:53:20;;;;;;;12.50;5.50;;;;;;;;;;10131964;28;20053;-58
2022/09/03 09:58:14;;;;;;;9.93;6.53;;;;;;;;;;10150107;28;20052;-57
2022/09/03 10:03:12;;;;;;;7.55;6.88;;;;;;;;;;10146214;28;20080;-57
2022/09/03 10:08:06;;;;;;;;;;;;;;;;;;10147794;28;20049;-57
2022/09/03 10:13:08;;;;;;;9.35;8.32;;;;;;;;;;10105250;28;19928;-57
2022/09/03 10:18:33;;;;;;;13.00;9.52;;;;;;;;;;10135565;28;20074;-57
2022/09/03 10:23:31;;;;;;;49.40;40.22;;;;;;;;;;10131953;28;20140;-57
2022/09/03 10:28:26;;;;;;;12.82;9.60;;;;;;;;;;10144669;28;20384;-57
2022/09/03 10:33:32;;;;;;;10.85;9.48;;;;;;;;;;10118316;28;20110;-55
2022/09/03 10:38:38;;;;;;;7.57;6.88;;;;;;;;;;10133492;28;20059;-57
2022/09/03 10:44:02;;;;;;;16.90;7.35;;;;;;;;;;10122642;28;20462;-57
2022/09/03 10:49:29;;;;;;;9.73;8.65;;;;;;;;;;10128768;28;20105;-57
2022/09/03 10:54:45;;;;;;;7.88;7.15;;;;;;;;;;10128724;28;20526;-57
2022/09/03 11:00:09;;;;;;;7.95;5.55;;;;;;;;;;10126893;28;20044;-57
2022/09/03 11:05:12;;;;;;;7.95;5.30;;;;;;;;;;10126784;28;20049;-57
2022/09/03 11:10:27;;;;;;;9.15;4.40;;;;;;;;;;10108948;28;20071;-57
2022/09/03 11:15:58;;;;;;;13.40;7.87;;;;;;;;;;10121115;28;20072;-57
2022/09/03 11:20:54;;;;;;;5.10;4.00;;;;;;;;;;10020538;28;20353;-57
2022/09/03 11:25:55;;;;;;;5.05;3.38;;;;;;;;;;10125734;28;20049;-57
2022/09/03 11:31:25;;;;;;;6.28;3.38;;;;;;;;;;10105208;28;20077;-57
2022/09/03 11:36:33;;;;;;;15.65;8.90;;;;;;;;;;10108020;28;20056;-57
2022/09/03 11:41:34;;;;;;;8.80;4.57;;;;;;;;;;10118331;28;20056;-57
2022/09/03 11:46:29;;;;;;;6.88;3.05;;;;;;;;;;10137954;28;20060;-57
2022/09/03 11:51:34;;;;;;;5.63;3.67;;;;;;;;;;10111414;28;20060;-57
2022/09/03 11:56:29;;;;;;;7.88;4.80;;;;;;;;;;10118636;28;20045;-57
2022/09/03 12:01:27;;;;;;;7.25;4.35;;;;;;;;;;10135708;28;20045;-57
2022/09/03 12:06:47;;;;;;;9.20;3.55;;;;;;;;;;10136739;28;20084;-57
2022/09/03 12:12:05;;;;;;;11.10;6.57;;;;;;;;;;10117983;28;20495;-57
2022/09/03 12:17:10;;;;;;;9.60;4.03;;;;;;;;;;10120340;28;20087;-57
2022/09/03 12:22:05;;;;;;;7.68;3.72;;;;;;;;;;10115862;28;20056;-57
2022/09/03 12:27:00;;;;;;;6.35;3.58;;;;;;;;;;10121301;28;20072;-57
2022/09/03 12:31:57;;;;;;;16.60;8.85;;;;;;;;;;10117903;28;20055;-57
2022/09/03 12:36:53;;;;;;;23.70;14.32;;;;;;;;;;10133570;28;20045;-57
2022/09/03 12:42:04;;;;;;;6.88;4.70;;;;;;;;;;10130336;28;20503;-57
2022/09/03 12:47:10;;;;;;;7.20;3.58;;;;;;;;;;10135038;28;20044;-57
2022/09/03 12:53:00;;;;;;;5.30;3.95;;;;;;;;;;10112270;28;20551;-57
2022/09/03 12:58:05;;;;;;;7.15;3.88;;;;;;;;;;10100753;28;20049;-57
2022/09/03 13:03:16;;;;;;;10.68;5.63;;;;;;;;;;10119662;28;20490;-57
2022/09/03 13:08:34;;;;;;;8.77;3.38;;;;;;;;;;10096619;28;20048;-57
2022/09/03 13:13:33;;;;;;;6.90;3.47;;;;;;;;;;10116745;28;20049;-57
2022/09/03 13:18:51;;;;;;;5.72;3.58;;;;;;;;;;10114811;28;20045;-57
2022/09/03 13:24:10;;;;;;;3.67;2.90;;;;;;;;;;10102411;28;20074;-57
2022/09/03 13:29:15;;;;;;;4.43;3.35;;;;;;;;;;10112285;28;20075;-57
2022/09/03 13:34:35;;;;;;;3.65;3.33;;;;;;;;;;10116387;28;20044;-56
2022/09/03 13:39:51;;;;;;;3.72;3.35;;;;;;;;;;10099675;28;20049;-56
2022/09/03 13:44:49;;;;;;;4.07;3.33;;;;;;;;;;10116967;28;20139;-58
2022/09/03 13:50:25;;;;;;;4.45;3.42;;;;;;;;;;10118271;28;20063;-57
2022/09/03 13:55:30;;;;;;;4.07;3.28;;;;;;;;;;9944811;28;20092;-57
2022/09/03 14:00:30;;;;;;;5.53;3.38;;;;;;;;;;10115460;28;20088;-56
2022/09/03 14:05:44;;;;;;;5.57;3.35;;;;;;;;;;10111520;28;20048;-56
2022/09/03 14:10:55;;;;;;;4.30;2.83;;;;;;;;;;10119958;28;20124;-57
2022/09/03 14:15:54;;;;;;;4.47;3.25;;;;;;;;;;10125615;28;20481;-57
2022/09/03 14:20:58;;;;;;;4.85;3.45;;;;;;;;;;10115162;28;20045;-57
2022/09/03 14:26:12;;;;;;;7.07;4.15;;;;;;;;;;10111053;28;20045;-57
2022/09/03 14:31:12;;;;;;;8.55;3.70;;;;;;;;;;10118886;28;20537;-57
2022/09/03 14:36:29;;;;;;;3.63;3.17;;;;;;;;;;10105442;28;20056;-57
2022/09/03 14:41:32;;;;;;;5.80;3.55;;;;;;;;;;10116498;28;20711;-58
2022/09/03 14:46:31;;;;;;;10.35;3.75;;;;;;;;;;10103964;28;20049;-58
2022/09/03 14:51:38;;;;;;;5.50;3.58;;;;;;;;;;10104895;28;20064;-59
2022/09/03 14:57:04;;;;;;;4.68;3.38;;;;;;;;;;10073662;28;20431;-58
2022/09/03 15:02:10;;;;;;;4.47;3.90;;;;;;;;;;10088401;28;20060;-58
2022/09/03 15:07:47;;;;;;;6.85;3.40;;;;;;;;;;10104791;28;20076;-57
2022/09/03 15:12:53;;;;;;;4.40;3.05;;;;;;;;;;9961123;28;20057;-57
2022/09/03 15:18:07;;;;;;;3.97;3.30;;;;;;;;;;10100702;28;20045;-58
2022/09/03 15:23:22;;;;;;;8.30;4.32;;;;;;;;;;10111053;28;20041;-58
2022/09/03 15:28:43;;;;;;;3.67;3.38;;;;;;;;;;10103740;28;20088;-57
2022/09/03 15:34:08;;;;;;;8.57;3.53;;;;;;;;;;10107388;28;20052;-57
2022/09/03 15:39:05;;;;;;;8.55;3.67;;;;;;;;;;10101445;28;20061;-57
2022/09/03 15:44:00;;;;;;;5.80;4.07;;;;;;;;;;10092591;28;20118;-57
2022/09/03 15:49:11;;;;;;;4.60;3.20;;;;;;;;;;10102453;28;20053;-58
2022/09/03 15:54:42;;;;;;;5.93;3.63;;;;;;;;;;10107171;28;20068;-57
2022/09/03 15:59:44;;;;;;;5.93;5.32;;;;;;;;;;10088022;28;20045;-57
2022/09/03 16:04:56;;;;;;;8.68;5.57;;;;;;;;;;10107619;28;20047;-57
2022/09/03 16:10:07;;;;;;;6.28;5.10;;;;;;;;;;10104777;28;20063;-56
2022/09/03 16:15:22;;;;;;;6.60;4.32;;;;;;;;;;10104179;28;20132;-58
2022/09/03 16:20:24;;;;;;;9.77;4.77;;;;;;;;;;10094676;28;20064;-60
2022/09/03 16:25:28;;;;;;;10.63;4.95;;;;;;;;;;10095845;28;20415;-59
2022/09/03 16:30:45;;;;;;;5.82;5.28;;;;;;;;;;10087083;28;20048;-58
2022/09/03 16:35:50;;;;;;;6.75;5.60;;;;;;;;;;10090001;28;20048;-59
2022/09/03 16:40:49;;;;;;;11.63;7.00;;;;;;;;;;10119135;28;20143;-59
2022/09/03 16:46:05;;;;;;;8.27;5.50;;;;;;;;;;10122051;28;20488;-59
2022/09/03 16:51:28;;;;;;;11.15;6.22;;;;;;;;;;10072921;28;20049;-59
2022/09/03 16:56:59;;;;;;;10.57;8.30;;;;;;;;;;10108606;28;20123;-59
2022/09/03 17:01:57;;;;;;;13.80;9.70;;;;;;;;;;10123811;28;20055;-59
2022/09/03 17:07:29;;;;;;;11.05;7.10;;;;;;;;;;10113348;28;20072;-59
2022/09/03 17:12:24;;;;;;;9.40;6.05;;;;;;;;;;10108102;28;20040;-59
2022/09/03 17:17:56;;;;;;;7.07;6.40;;;;;;;;;;10123243;28;20119;-59
2022/09/03 17:23:09;;;;;;;7.63;6.70;;;;;;;;;;10036093;28;20406;-59
2022/09/03 17:28:16;;;;;;;11.50;7.55;;;;;;;;;;10120649;28;20053;-59
2022/09/03 17:33:34;;;;;;;7.60;6.93;;;;;;;;;;10107469;28;20081;-59
2022/09/03 17:38:39;;;;;;;9.48;6.85;;;;;;;;;;10120054;28;20057;-59
2022/09/03 17:44:01;;;;;;;13.55;7.32;;;;;;;;;;10142048;28;20077;-59
2022/09/03 17:48:58;;;;;;;8.30;6.38;;;;;;;;;;10116592;28;20529;-59
2022/09/03 17:54:05;;;;;;;13.83;7.13;;;;;;;;;;10116397;28;20057;-59
2022/09/03 17:59:01;;;;;;;8.18;7.05;;;;;;;;;;10112080;28;20135;-59
2022/09/03 18:04:20;;;;;;;9.63;8.20;;;;;;;;;;10113017;28;20128;-59
2022/09/03 18:09:16;;;;;;;9.53;8.50;;;;;;;;;;10127411;28;20049;-59
2022/09/03 18:14:34;;;;;;;11.70;8.15;;;;;;;;;;10136449;28;20127;-59
2022/09/03 20:12:16;;;;;;;8.38;7.00;;;;;;;;;;10115124;28;20040;-58
2022/09/03 20:17:33;;;;;;;8.15;7.38;;;;;;;;;;10102707;28;20506;-59
2022/09/03 20:22:48;;;;;;;9.00;7.95;;;;;;;;;;10109820;28;20091;-59
2022/09/03 20:28:07;;;;;;;8.52;7.72;;;;;;;;;;10113209;28;20479;-59
2022/09/03 20:33:18;;;;;;;13.55;7.30;;;;;;;;;;10115480;28;20083;-58
2022/09/03 20:38:26;;;;;;;8.50;7.40;;;;;;;;;;10097141;28;20118;-59
2022/09/03 20:43:50;;;;;;;8.35;7.45;;;;;;;;;;10111180;28;20037;-59
2022/09/03 20:49:07;;;;;;;8.48;7.22;;;;;;;;;;10116410;28;20041;-59
2022/09/03 20:54:08;;;;;;;23.42;17.02;;;;;;;;;;10118469;28;20098;-59
2022/09/03 20:59:13;;;;;;;53.72;39.85;;;;;;;;;;10102478;28;20499;-59
2022/09/03 21:04:15;;;;;;;25.95;16.27;;;;;;;;;;10115732;28;20049;-59
2022/09/03 21:09:09;;;;;;;20.00;15.55;;;;;;;;;;10119649;28;20100;-59
2022/09/03 21:14:28;;;;;;;17.92;12.48;;;;;;;;;;10140594;28;20440;-59
2022/09/03 21:19:37;;;;;;;20.60;15.32;;;;;;;;;;10122505;28;20048;-59
2022/09/03 21:24:39;;;;;;;32.00;24.55;;;;;;;;;;10114137;28;20063;-59
2022/09/03 21:29:43;;;;;;;32.85;25.67;;;;;;;;;;10093559;28;20057;-59
2022/09/03 21:34:57;;;;;;;26.02;19.85;;;;;;;;;;10105507;28;20056;-59
2022/09/03 21:39:55;;;;;;;30.85;24.30;;;;;;;;;;10104076;28;20068;-59
2022/09/03 21:45:06;;;;;;;18.90;14.68;;;;;;;;;;10107466;28;20466;-59
2022/09/03 21:50:11;;;;;;;18.40;13.52;;;;;;;;;;10103382;28;20083;-59
2022/09/03 21:55:40;;;;;;;14.02;12.27;;;;;;;;;;10111978;28;20048;-58
2022/09/03 22:01:14;;;;;;;20.52;17.20;;;;;;;;;;10116797;28;20052;-60
2022/09/03 22:06:14;;;;;;;21.65;16.60;;;;;;;;;;10111673;28;20076;-60
2022/09/03 22:11:14;;;;;;;28.48;19.85;;;;;;;;;;10095816;28;20056;-60
2022/09/03 22:16:22;;;;;;;27.17;18.90;;;;;;;;;;10115843;28;20048;-61
2022/09/03 22:21:22;;;;;;;15.43;13.90;;;;;;;;;;10092406;28;20083;-60
2022/09/03 22:26:36;;;;;;;14.93;13.40;;;;;;;;;;10122310;28;20466;-61
2022/09/03 22:32:11;;;;;;;26.58;17.15;;;;;;;;;;10119075;28;20529;-61
2022/09/03 22:37:19;;;;;;;15.18;13.57;;;;;;;;;;10115949;28;20087;-60
2022/09/03 22:43:00;;;;;;;15.90;14.32;;;;;;;;;;10092008;28;20525;-60
2022/09/03 22:48:15;;;;;;;13.77;12.40;;;;;;;;;;10013270;28;20591;-61
2022/09/03 22:53:39;;;;;;;14.43;13.13;;;;;;;;;;10103117;28;20049;-61
2022/09/03 22:58:41;;;;;;;30.35;22.20;;;;;;;;;;10118120;28;20102;-60
2022/09/03 23:03:43;;;;;;;43.10;29.08;;;;;;;;;;10093681;28;20576;-61
2022/09/03 23:08:43;;;;;;;26.50;18.17;;;;;;;;;;10117071;28;20045;-61
2022/09/03 23:13:59;;;;;;;24.67;18.85;;;;;;;;;;10113808;28;20055;-60
2022/09/03 23:18:53;;;;;;;33.92;25.13;;;;;;;;;;10098105;28;20040;-60
2022/09/03 23:24:09;;;;;;;33.03;26.40;;;;;;;;;;10106117;28;20124;-61
2022/09/03 23:29:11;;;;;;;29.67;23.40;;;;;;;;;;10086640;28;20087;-61
2022/09/03 23:34:05;;;;;;;18.95;17.13;;;;;;;;;;10089799;28;20075;-61
2022/09/03 23:39:08;;;;;;;19.15;16.52;;;;;;;;;;10114228;28;20106;-61
2022/09/03 23:44:41;;;;;;;15.85;14.52;;;;;;;;;;10130045;28;20055;-61
2022/09/03 23:49:49;;;;;;;14.73;13.43;;;;;;;;;;10027363;28;20052;-59
2022/09/03 23:54:44;;;;;;;15.40;13.85;;;;;;;;;;10136593;28;20048;-59
2022/09/03 23:59:40;;;;;;;18.50;15.95;;;;;;;;;;10128828;28;20088;-59
